sensor_id;sensor_type;location;lat;lon;timestamp;pressure;altitude;pressure_sealevel;temperature;humidity
28310;BME280;15571;50.974;13.936;2022-10-13T00:00:25;100757.59;;;9.74;100.00
28310;BME280;15571;50.974;13.936;2022-10-13T00:03:27;100759.34;;;9.75;100.00
28310;BME280;15571;50.974;13.936;2022-10-13T00:06:30;100760.22;;;9.76;100.00
28310;BME280;15571;50.974;13.936;2022-10-13T00:09:32;100755.88;;;9.78;100.00
28310;BME280;15571;50.974;13.936;2022-10-13T00:12:36;100757.63;;;9.80;100.00
28310;BME280;15571;50.974;13.936;2022-10-13T00:15:45;100744.59;;;9.82;100.00
28310;BME280;15571;50.974;13.936;2022-10-13T00:18:51;100740.25;;;9.84;100.00
28310;BME280;15571;50.974;13.936;2022-10-13T00:21:53;100735.88;;;9.85;100.00
28310;BME280;15571;50.974;13.936;2022-10-13T00:24:56;100739.38;;;9.82;100.00
28310;BME280;15571;50.974;13.936;2022-10-13T00:27:59;100736.75;;;9.82;100.00
28310;BME280;15571;50.974;13.936;2022-10-13T00:31:16;100733.25;;;9.81;100.00
28310;BME280;15571;50.974;13.936;2022-10-13T00:34:18;100729.78;;;9.79;100.00
28310;BME280;15571;50.974;13.936;2022-10-13T00:37:21;100735.00;;;9.79;100.00
28310;BME280;15571;50.974;13.936;2022-10-13T00:40:23;100739.34;;;9.80;100.00
28310;BME280;15571;50.974;13.936;2022-10-13T00:43:46;100733.25;;;9.78;100.00
28310;BME280;15571;50.974;13.936;2022-10-13T00:46:53;100737.59;;;9.78;100.00
28310;BME280;15571;50.974;13.936;2022-10-13T00:49:56;100734.09;;;9.77;100.00
28310;BME280;15571;50.974;13.936;2022-10-13T00:52:59;100731.50;;;9.77;100.00
28310;BME280;15571;50.974;13.936;2022-10-13T00:56:07;100728.84;;;9.73;100.00
28310;BME280;15571;50.974;13.936;2022-10-13T00:59:14;100720.97;;;9.68;100.00
28310;BME280;15571;50.974;13.936;2022-10-13T01:02:26;100720.09;;;9.66;100.00
28310;BME280;15571;50.974;13.936;2022-10-13T01:05:33;100731.41;;;9.65;100.00
28310;BME280;15571;50.974;13.936;2022-10-13T01:08:36;100736.59;;;9.62;100.00
28310;BME280;15571;50.974;13.936;2022-10-13T01:11:49;100727.91;;;9.60;100.00
28310;BME280;15571;50.974;13.936;2022-10-13T01:15:00;100721.78;;;9.59;100.00
28310;BME280;15571;50.974;13.936;2022-10-13T01:18:13;100726.16;;;9.59;100.00
28310;BME280;15571;50.974;13.936;2022-10-13T01:21:26;100724.41;;;9.58;100.00
28310;BME280;15571;50.974;13.936;2022-10-13T01:24:44;100725.25;;;9.58;100.00
28310;BME280;15571;50.974;13.936;2022-10-13T01:28:07;100719.19;;;9.58;100.00
28310;BME280;15571;50.974;13.936;2022-10-13T01:31:19;100715.66;;;9.57;100.00
28310;BME280;15571;50.974;13.936;2022-10-13T01:34:30;100714.78;;;9.55;100.00
28310;BME280;15571;50.974;13.936;2022-10-13T01:37:42;100718.28;;;9.54;100.00
28310;BME280;15571;50.974;13.936;2022-10-13T01:40:49;100716.53;;;9.53;100.00
28310;BME280;15571;50.974;13.936;2022-10-13T01:44:00;100705.22;;;9.56;100.00
28310;BME280;15571;50.974;13.936;2022-10-13T01:47:08;100703.50;;;9.58;100.00
28310;BME280;15571;50.974;13.936;2022-10-13T01:50:12;100710.47;;;9.59;100.00
28310;BME280;15571;50.974;13.936;2022-10-13T01:53:15;100704.38;;;9.60;100.00
28310;BME280;15571;50.974;13.936;2022-10-13T01:56:25;100697.44;;;9.63;100.00
28310;BME280;15571;50.974;13.936;2022-10-13T01:59:30;100699.19;;;9.64;100.00
28310;BME280;15571;50.974;13.936;2022-10-13T02:02:40;100689.59;;;9.65;100.00
28310;BME280;15571;50.974;13.936;2022-10-13T02:05:45;100692.19;;;9.63;100.00
28310;BME280;15571;50.974;13.936;2022-10-13T02:08:56;100689.59;;;9.65;100.00
28310;BME280;15571;50.974;13.936;2022-10-13T02:12:05;100696.56;;;9.66;100.00
28310;BME280;15571;50.974;13.936;2022-10-13T02:15:12;100693.09;;;9.67;100.00
28310;BME280;15571;50.974;13.936;2022-10-13T02:18:24;100688.69;;;9.63;100.00
28310;BME280;15571;50.974;13.936;2022-10-13T02:21:29;100684.34;;;9.65;100.00
28310;BME280;15571;50.974;13.936;2022-10-13T02:24:36;100687.84;;;9.67;100.00
28310;BME280;15571;50.974;13.936;2022-10-13T02:27:38;100690.47;;;9.69;100.00
28310;BME280;15571;50.974;13.936;2022-10-13T02:30:42;100680.88;;;9.66;100.00
28310;BME280;15571;50.974;13.936;2022-10-13T02:33:46;100673.91;;;9.65;100.00
28310;BME280;15571;50.974;13.936;2022-10-13T02:36:49;100680.88;;;9.66;100.00
28310;BME280;15571;50.974;13.936;2022-10-13T02:39:52;100679.13;;;9.65;100.00
28310;BME280;15571;50.974;13.936;2022-10-13T02:42:57;100678.25;;;9.66;100.00
28310;BME280;15571;50.974;13.936;2022-10-13T02:45:59;100686.09;;;9.66;100.00
28310;BME280;15571;50.974;13.936;2022-10-13T02:49:03;100681.75;;;9.63;100.00
28310;BME280;15571;50.974;13.936;2022-10-13T02:52:06;100680.84;;;9.63;100.00
28310;BME280;15571;50.974;13.936;2022-10-13T02:55:16;100673.91;;;9.65;100.00
28310;BME280;15571;50.974;13.936;2022-10-13T02:58:20;100678.28;;;9.64;100.00
28310;BME280;15571;50.974;13.936;2022-10-13T03:01:25;100679.13;;;9.65;100.00
28310;BME280;15571;50.974;13.936;2022-10-13T03:04:29;100670.44;;;9.66;100.00
28310;BME280;15571;50.974;13.936;2022-10-13T03:07:33;100663.41;;;9.62;100.00
28310;BME280;15571;50.974;13.936;2022-10-13T03:10:36;100666.91;;;9.64;100.00
28310;BME280;15571;50.974;13.936;2022-10-13T03:13:39;100673.00;;;9.63;100.00
28310;BME280;15571;50.974;13.936;2022-10-13T03:16:41;100664.31;;;9.64;100.00
28310;BME280;15571;50.974;13.936;2022-10-13T03:19:45;100668.66;;;9.62;100.00
28310;BME280;15571;50.974;13.936;2022-10-13T03:22:51;100664.28;;;9.61;100.00
28310;BME280;15571;50.974;13.936;2022-10-13T03:25:54;100665.16;;;9.63;100.00
28310;BME280;15571;50.974;13.936;2022-10-13T03:28:57;100658.19;;;9.62;100.00
28310;BME280;15571;50.974;13.936;2022-10-13T03:32:01;100651.25;;;9.64;100.00
28310;BME280;15571;50.974;13.936;2022-10-13T03:35:06;100648.59;;;9.61;100.00
28310;BME280;15571;50.974;13.936;2022-10-13T03:38:09;100655.59;;;9.60;100.00
28310;BME280;15571;50.974;13.936;2022-10-13T03:41:13;100655.59;;;9.60;100.00
28310;BME280;15571;50.974;13.936;2022-10-13T03:44:18;100658.19;;;9.62;100.00
28310;BME280;15571;50.974;13.936;2022-10-13T03:47:21;100663.44;;;9.63;100.00
28310;BME280;15571;50.974;13.936;2022-10-13T03:50:25;100663.44;;;9.65;100.00
28310;BME280;15571;50.974;13.936;2022-10-13T03:53:28;100666.06;;;9.66;100.00
28310;BME280;15571;50.974;13.936;2022-10-13T03:56:31;100666.06;;;9.66;100.00
28310;BME280;15571;50.974;13.936;2022-10-13T03:59:33;100669.56;;;9.69;100.00
28310;BME280;15571;50.974;13.936;2022-10-13T04:02:36;100661.72;;;9.69;100.00
28310;BME280;15571;50.974;13.936;2022-10-13T04:05:40;100656.50;;;9.67;100.00
28310;BME280;15571;50.974;13.936;2022-10-13T04:08:45;100654.75;;;9.66;100.00
28310;BME280;15571;50.974;13.936;2022-10-13T04:11:49;100655.59;;;9.65;100.00
28310;BME280;15571;50.974;13.936;2022-10-13T04:14:52;100653.00;;;9.68;100.00
28310;BME280;15571;50.974;13.936;2022-10-13T04:17:54;100646.03;;;9.67;100.00
28310;BME280;15571;50.974;13.936;2022-10-13T04:20:58;100649.53;;;9.69;100.00
28310;BME280;15571;50.974;13.936;2022-10-13T04:24:04;100651.25;;;9.70;100.00
28310;BME280;15571;50.974;13.936;2022-10-13T04:27:09;100655.63;;;9.71;100.00
28310;BME280;15571;50.974;13.936;2022-10-13T04:30:13;100660.00;;;9.72;100.00
28310;BME280;15571;50.974;13.936;2022-10-13T04:33:16;100653.03;;;9.74;100.00
28310;BME280;15571;50.974;13.936;2022-10-13T04:36:23;100643.44;;;9.75;100.00
28310;BME280;15571;50.974;13.936;2022-10-13T04:39:31;100653.06;;;9.77;100.00
28310;BME280;15571;50.974;13.936;2022-10-13T04:42:33;100664.41;;;9.81;100.00
28310;BME280;15571;50.974;13.936;2022-10-13T04:45:36;100658.31;;;9.84;100.00
28310;BME280;15571;50.974;13.936;2022-10-13T04:48:38;100651.34;;;9.86;100.00
28310;BME280;15571;50.974;13.936;2022-10-13T04:51:42;100646.97;;;9.86;100.00
28310;BME280;15571;50.974;13.936;2022-10-13T04:54:45;100649.63;;;9.88;100.00
28310;BME280;15571;50.974;13.936;2022-10-13T04:57:47;100649.63;;;9.88;100.00
28310;BME280;15571;50.974;13.936;2022-10-13T05:00:50;100647.84;;;9.90;100.00
28310;BME280;15571;50.974;13.936;2022-10-13T05:03:53;100642.63;;;9.87;100.00
28310;BME280;15571;50.974;13.936;2022-10-13T05:06:58;100643.50;;;9.87;100.00
28310;BME280;15571;50.974;13.936;2022-10-13T05:10:00;100632.16;;;9.88;100.00
28310;BME280;15571;50.974;13.936;2022-10-13T05:13:03;100622.56;;;9.87;100.00
28310;BME280;15571;50.974;13.936;2022-10-13T05:16:06;100632.16;;;9.90;100.00
28310;BME280;15571;50.974;13.936;2022-10-13T05:19:09;100628.69;;;9.91;100.00
28310;BME280;15571;50.974;13.936;2022-10-13T05:22:15;100625.22;;;9.92;100.00
28310;BME280;15571;50.974;13.936;2022-10-13T05:25:20;100625.22;;;9.90;100.00
28310;BME280;15571;50.974;13.936;2022-10-13T05:28:23;100633.94;;;9.94;100.00
28310;BME280;15571;50.974;13.936;2022-10-13T05:31:28;100632.19;;;9.94;100.00
28310;BME280;15571;50.974;13.936;2022-10-13T05:34:36;100631.34;;;9.97;100.00
28310;BME280;15571;50.974;13.936;2022-10-13T05:37:39;100626.13;;;9.97;100.00
28310;BME280;15571;50.974;13.936;2022-10-13T05:40:44;100627.00;;;9.99;100.00
28310;BME280;15571;50.974;13.936;2022-10-13T05:43:47;100626.09;;;10.00;100.00
28310;BME280;15571;50.974;13.936;2022-10-13T05:46:49;100620.91;;;10.02;100.00
28310;BME280;15571;50.974;13.936;2022-10-13T05:49:52;100623.50;;;10.03;100.00
28310;BME280;15571;50.974;13.936;2022-10-13T05:52:59;100613.03;;;10.00;100.00
28310;BME280;15571;50.974;13.936;2022-10-13T05:56:07;100612.19;;;10.04;100.00
28310;BME280;15571;50.974;13.936;2022-10-13T05:59:18;100619.16;;;10.04;100.00
28310;BME280;15571;50.974;13.936;2022-10-13T06:02:25;100614.78;;;10.04;100.00
28310;BME280;15571;50.974;13.936;2022-10-13T06:05:29;100611.31;;;10.01;100.00
28310;BME280;15571;50.974;13.936;2022-10-13T06:08:35;100622.66;;;10.07;100.00
28310;BME280;15571;50.974;13.936;2022-10-13T06:11:38;100613.94;;;10.07;100.00
28310;BME280;15571;50.974;13.936;2022-10-13T06:14:42;100617.41;;;10.10;100.00
28310;BME280;15571;50.974;13.936;2022-10-13T06:17:45;100613.06;;;10.12;100.00
28310;BME280;15571;50.974;13.936;2022-10-13T06:20:48;100613.97;;;10.15;100.00
28310;BME280;15571;50.974;13.936;2022-10-13T06:23:53;100606.09;;;10.15;100.00
28310;BME280;15571;50.974;13.936;2022-10-13T06:26:56;100607.84;;;10.16;100.00
28310;BME280;15571;50.974;13.936;2022-10-13T06:30:00;100610.47;;;10.16;100.00
28310;BME280;15571;50.974;13.936;2022-10-13T06:33:03;100609.59;;;10.17;100.00
28310;BME280;15571;50.974;13.936;2022-10-13T06:36:10;100606.97;;;10.20;100.00
28310;BME280;15571;50.974;13.936;2022-10-13T06:39:14;100604.34;;;10.20;100.00
28310;BME280;15571;50.974;13.936;2022-10-13T06:42:16;100603.50;;;10.21;100.00
28310;BME280;15571;50.974;13.936;2022-10-13T06:45:19;100613.09;;;10.20;100.00
28310;BME280;15571;50.974;13.936;2022-10-13T06:48:21;100604.38;;;10.17;100.00
28310;BME280;15571;50.974;13.936;2022-10-13T06:51:24;100619.22;;;10.18;100.00
28310;BME280;15571;50.974;13.936;2022-10-13T06:54:28;100621.81;;;10.18;100.00
28310;BME280;15571;50.974;13.936;2022-10-13T06:57:33;100624.44;;;10.18;100.00
28310;BME280;15571;50.974;13.936;2022-10-13T07:00:39;100625.28;;;10.20;100.00
28310;BME280;15571;50.974;13.936;2022-10-13T07:03:42;100625.28;;;10.20;100.00
28310;BME280;15571;50.974;13.936;2022-10-13T07:06:45;100630.56;;;10.21;100.00
28310;BME280;15571;50.974;13.936;2022-10-13T07:09:50;100631.44;;;10.23;100.00
28310;BME280;15571;50.974;13.936;2022-10-13T07:12:53;100636.69;;;10.28;100.00
28310;BME280;15571;50.974;13.936;2022-10-13T07:15:56;100642.78;;;10.33;100.00
28310;BME280;15571;50.974;13.936;2022-10-13T07:19:04;100639.34;;;10.37;100.00
28310;BME280;15571;50.974;13.936;2022-10-13T07:22:07;100633.25;;;10.45;100.00
28310;BME280;15571;50.974;13.936;2022-10-13T07:25:11;100632.38;;;10.52;100.00
28310;BME280;15571;50.974;13.936;2022-10-13T07:28:14;100627.13;;;10.61;100.00
28310;BME280;15571;50.974;13.936;2022-10-13T07:31:20;100621.94;;;10.67;100.00
28310;BME280;15571;50.974;13.936;2022-10-13T07:34:23;100628.88;;;10.78;100.00
28310;BME280;15571;50.974;13.936;2022-10-13T07:37:25;100629.78;;;10.83;100.00
28310;BME280;15571;50.974;13.936;2022-10-13T07:40:29;100631.53;;;10.93;100.00
28310;BME280;15571;50.974;13.936;2022-10-13T07:43:32;100630.63;;;10.97;100.00
28310;BME280;15571;50.974;13.936;2022-10-13T07:46:38;100620.16;;;11.00;100.00
28310;BME280;15571;50.974;13.936;2022-10-13T07:49:41;100616.69;;;11.04;100.00
28310;BME280;15571;50.974;13.936;2022-10-13T07:52:44;100609.66;;;11.10;100.00
28310;BME280;15571;50.974;13.936;2022-10-13T07:55:51;100611.41;;;11.17;100.00
28310;BME280;15571;50.974;13.936;2022-10-13T07:58:53;100607.03;;;11.19;100.00
28310;BME280;15571;50.974;13.936;2022-10-13T08:01:57;100606.16;;;11.26;100.00
28310;BME280;15571;50.974;13.936;2022-10-13T08:05:02;100606.16;;;11.26;100.00
28310;BME280;15571;50.974;13.936;2022-10-13T08:08:04;100597.41;;;11.30;100.00
28310;BME280;15571;50.974;13.936;2022-10-13T08:11:12;100597.41;;;11.33;100.00
28310;BME280;15571;50.974;13.936;2022-10-13T08:14:15;100598.25;;;11.42;100.00
28310;BME280;15571;50.974;13.936;2022-10-13T08:17:17;100590.38;;;11.46;100.00
28310;BME280;15571;50.974;13.936;2022-10-13T08:20:21;100595.59;;;11.54;100.00
28310;BME280;15571;50.974;13.936;2022-10-13T08:23:23;100585.06;;;11.62;100.00
28310;BME280;15571;50.974;13.936;2022-10-13T08:26:27;100589.44;;;11.64;100.00
28310;BME280;15571;50.974;13.936;2022-10-13T08:29:34;100581.53;;;11.72;100.00
28310;BME280;15571;50.974;13.936;2022-10-13T08:32:40;100585.00;;;11.79;100.00
28310;BME280;15571;50.974;13.936;2022-10-13T08:35:42;100583.25;;;11.81;100.00
28310;BME280;15571;50.974;13.936;2022-10-13T08:38:45;100584.94;;;11.88;100.00
28310;BME280;15571;50.974;13.936;2022-10-13T08:41:49;100575.34;;;11.89;100.00
28310;BME280;15571;50.974;13.936;2022-10-13T08:44:55;100576.16;;;11.95;100.00
28310;BME280;15571;50.974;13.936;2022-10-13T08:48:06;100568.28;;;11.97;100.00
28310;BME280;15571;50.974;13.936;2022-10-13T08:51:14;100555.19;;;12.02;100.00
28310;BME280;15571;50.974;13.936;2022-10-13T08:54:18;100553.44;;;12.04;100.00
28310;BME280;15571;50.974;13.936;2022-10-13T08:57:24;100544.69;;;12.05;100.00
28310;BME280;15571;50.974;13.936;2022-10-13T09:00:28;100550.75;;;12.07;100.00
28310;BME280;15571;50.974;13.936;2022-10-13T09:03:43;100552.50;;;12.11;100.00
28310;BME280;15571;50.974;13.936;2022-10-13T09:06:50;100543.72;;;12.13;100.00
28310;BME280;15571;50.974;13.936;2022-10-13T09:09:55;100547.16;;;12.22;100.00
28310;BME280;15571;50.974;13.936;2022-10-13T09:13:00;100542.78;;;12.24;100.00
28310;BME280;15571;50.974;13.936;2022-10-13T09:16:06;100548.88;;;12.29;100.00
28310;BME280;15571;50.974;13.936;2022-10-13T09:19:19;100540.97;;;12.34;100.00
28310;BME280;15571;50.974;13.936;2022-10-13T09:22:25;100534.78;;;12.41;100.00
28310;BME280;15571;50.974;13.936;2022-10-13T09:25:28;100533.00;;;12.44;100.00
28310;BME280;15571;50.974;13.936;2022-10-13T09:28:32;100530.34;;;12.49;100.00
28310;BME280;15571;50.974;13.936;2022-10-13T09:31:43;100523.28;;;12.54;100.00
28310;BME280;15571;50.974;13.936;2022-10-13T09:34:47;100519.72;;;12.61;100.00
28310;BME280;15571;50.974;13.936;2022-10-13T09:38:01;100510.91;;;12.69;100.00
28310;BME280;15571;50.974;13.936;2022-10-13T09:41:06;100512.63;;;12.73;100.00
28310;BME280;15571;50.974;13.936;2022-10-13T09:44:17;100504.69;;;12.79;100.00
28310;BME280;15571;50.974;13.936;2022-10-13T09:47:20;100508.97;;;12.86;100.00
28310;BME280;15571;50.974;13.936;2022-10-13T09:50:28;100498.47;;;12.88;100.00
28310;BME280;15571;50.974;13.936;2022-10-13T09:53:34;100497.44;;;12.98;100.00
28310;BME280;15571;50.974;13.936;2022-10-13T09:56:42;100496.50;;;13.04;100.00
28310;BME280;15571;50.974;13.936;2022-10-13T09:59:50;100499.97;;;13.09;100.00
28310;BME280;15571;50.974;13.936;2022-10-13T10:02:57;100500.75;;;13.17;100.00
28310;BME280;15571;50.974;13.936;2022-10-13T10:06:04;100493.69;;;13.22;100.00
28310;BME280;15571;50.974;13.936;2022-10-13T10:09:27;100493.53;;;13.35;100.00
28310;BME280;15571;50.974;13.936;2022-10-13T10:12:35;100481.13;;;13.48;100.00
28310;BME280;15571;50.974;13.936;2022-10-13T10:15:49;100480.16;;;13.55;100.00
28310;BME280;15571;50.974;13.936;2022-10-13T10:18:58;100477.34;;;13.67;100.00
28310;BME280;15571;50.974;13.936;2022-10-13T10:22:09;100472.75;;;13.82;100.00
28310;BME280;15571;50.974;13.936;2022-10-13T10:25:23;100473.47;;;13.92;100.00
28310;BME280;15571;50.974;13.936;2022-10-13T10:28:47;100475.84;;;14.09;100.00
28310;BME280;15571;50.974;13.936;2022-10-13T10:32:10;100468.69;;;14.19;100.00
28310;BME280;15571;50.974;13.936;2022-10-13T10:35:26;100465.91;;;14.26;100.00
28310;BME280;15571;50.974;13.936;2022-10-13T10:38:41;100461.41;;;14.33;100.00
28310;BME280;15571;50.974;13.936;2022-10-13T10:41:50;100454.25;;;14.41;100.00
28310;BME280;15571;50.974;13.936;2022-10-13T10:44:58;100455.81;;;14.52;100.00
28310;BME280;15571;50.974;13.936;2022-10-13T10:48:07;100451.19;;;14.64;100.00
28310;BME280;15571;50.974;13.936;2022-10-13T10:51:16;100441.44;;;14.73;100.00
28310;BME280;15571;50.974;13.936;2022-10-13T10:54:25;100450.00;;;14.83;100.00
28310;BME280;15571;50.974;13.936;2022-10-13T10:57:36;100432.22;;;14.94;100.00
28310;BME280;15571;50.974;13.936;2022-10-13T11:00:49;100434.63;;;15.06;100.00
28310;BME280;15571;50.974;13.936;2022-10-13T11:03:57;100433.56;;;15.14;100.00
28310;BME280;15571;50.974;13.936;2022-10-13T11:07:02;100424.72;;;15.16;100.00
28310;BME280;15571;50.974;13.936;2022-10-13T11:10:17;100417.63;;;15.20;100.00
28310;BME280;15571;50.974;13.936;2022-10-13T11:13:21;100410.50;;;15.25;100.00
28310;BME280;15571;50.974;13.936;2022-10-13T11:16:28;100413.06;;;15.28;100.00
28310;BME280;15571;50.974;13.936;2022-10-13T11:19:42;100405.91;;;15.33;100.00
28310;BME280;15571;50.974;13.936;2022-10-13T11:26:31;100396.03;;;15.41;100.00
28310;BME280;15571;50.974;13.936;2022-10-13T11:29:53;100393.34;;;15.45;100.00
28310;BME280;15571;50.974;13.936;2022-10-13T11:32:59;100389.88;;;15.43;100.00
28310;BME280;15571;50.974;13.936;2022-10-13T11:40:00;100378.38;;;15.45;100.00
28310;BME280;15571;50.974;13.936;2022-10-13T11:43:31;100373.16;;;15.44;100.00
28310;BME280;15571;50.974;13.936;2022-10-13T11:46:52;100375.72;;;15.47;100.00
28310;BME280;15571;50.974;13.936;2022-10-13T11:50:03;100364.22;;;15.49;100.00
28310;BME280;15571;50.974;13.936;2022-10-13T11:53:14;100364.22;;;15.49;100.00
28310;BME280;15571;50.974;13.936;2022-10-13T11:56:30;100360.63;;;15.52;100.00
28310;BME280;15571;50.974;13.936;2022-10-13T11:59:35;100351.66;;;15.59;100.00
28310;BME280;15571;50.974;13.936;2022-10-13T12:02:49;100352.28;;;15.70;100.00
28310;BME280;15571;50.974;13.936;2022-10-13T12:05:56;100349.50;;;15.77;100.00
28310;BME280;15571;50.974;13.936;2022-10-13T12:09:05;100338.84;;;15.80;100.00
28310;BME280;15571;50.974;13.936;2022-10-13T12:12:14;100344.81;;;15.88;100.00
28310;BME280;15571;50.974;13.936;2022-10-13T12:15:30;100342.13;;;15.91;100.00
28310;BME280;15571;50.974;13.936;2022-10-13T12:18:36;100336.84;;;15.91;100.00
28310;BME280;15571;50.974;13.936;2022-10-13T12:21:47;100341.09;;;15.97;100.00
28310;BME280;15571;50.974;13.936;2022-10-13T12:24:59;100330.47;;;15.98;100.00
28310;BME280;15571;50.974;13.936;2022-10-13T12:28:04;100336.47;;;16.05;100.00
28310;BME280;15571;50.974;13.936;2022-10-13T12:31:17;100323.31;;;16.03;100.00
28310;BME280;15571;50.974;13.936;2022-10-13T12:34:23;100333.69;;;16.11;100.00
28310;BME280;15571;50.974;13.936;2022-10-13T12:37:29;100331.00;;;16.13;100.00
28310;BME280;15571;50.974;13.936;2022-10-13T12:40:33;100329.97;;;16.18;100.00
28310;BME280;15571;50.974;13.936;2022-10-13T12:43:40;100326.28;;;16.24;100.00
28310;BME280;15571;50.974;13.936;2022-10-13T12:46:50;100330.56;;;16.28;100.00
28310;BME280;15571;50.974;13.936;2022-10-13T12:50:20;100323.47;;;16.30;100.00
28310;BME280;15571;50.974;13.936;2022-10-13T12:53:25;100325.22;;;16.31;100.00
28310;BME280;15571;50.974;13.936;2022-10-13T12:56:31;100318.13;;;16.32;100.00
28310;BME280;15571;50.974;13.936;2022-10-13T12:59:40;100322.56;;;16.31;100.00
28310;BME280;15571;50.974;13.936;2022-10-13T13:02:49;100319.06;;;16.31;100.00
28310;BME280;15571;50.974;13.936;2022-10-13T13:06:06;100319.94;;;16.31;100.00
28310;BME280;15571;50.974;13.936;2022-10-13T13:09:20;100315.53;;;16.30;100.00
28310;BME280;15571;50.974;13.936;2022-10-13T13:12:27;100320.84;;;16.30;100.00
28310;BME280;15571;50.974;13.936;2022-10-13T13:15:35;100315.47;;;16.33;100.00
28310;BME280;15571;50.974;13.936;2022-10-13T13:18:39;100318.00;;;16.37;100.00
28310;BME280;15571;50.974;13.936;2022-10-13T13:21:42;100312.72;;;16.37;100.00
28310;BME280;15571;50.974;13.936;2022-10-13T13:24:45;100318.00;;;16.37;100.00
28310;BME280;15571;50.974;13.936;2022-10-13T13:27:47;100309.09;;;16.41;100.00
28310;BME280;15571;50.974;13.936;2022-10-13T13:30:52;100312.50;;;16.44;100.00
28310;BME280;15571;50.974;13.936;2022-10-13T13:33:54;100313.34;;;16.46;100.00
28310;BME280;15571;50.974;13.936;2022-10-13T13:37:00;100310.66;;;16.48;100.00
28310;BME280;15571;50.974;13.936;2022-10-13T13:40:04;100310.66;;;16.48;100.00
28310;BME280;15571;50.974;13.936;2022-10-13T13:43:07;100298.44;;;16.44;100.00
28310;BME280;15571;50.974;13.936;2022-10-13T13:46:15;100302.84;;;16.45;100.00
28310;BME280;15571;50.974;13.936;2022-10-13T13:49:18;100301.13;;;16.42;100.00
28310;BME280;15571;50.974;13.936;2022-10-13T13:52:26;100302.91;;;16.42;100.00
28310;BME280;15571;50.974;13.936;2022-10-13T13:55:31;100306.47;;;16.41;100.00
28310;BME280;15571;50.974;13.936;2022-10-13T13:58:35;100299.44;;;16.40;100.00
28310;BME280;15571;50.974;13.936;2022-10-13T14:01:38;100301.91;;;16.46;100.00
28310;BME280;15571;50.974;13.936;2022-10-13T14:04:41;100302.72;;;16.48;100.00
28310;BME280;15571;50.974;13.936;2022-10-13T14:07:44;100300.06;;;16.48;100.00
28310;BME280;15571;50.974;13.936;2022-10-13T14:10:47;100300.97;;;16.48;100.00
28310;BME280;15571;50.974;13.936;2022-10-13T14:13:52;100299.94;;;16.53;100.00
28310;BME280;15571;50.974;13.936;2022-10-13T14:17:05;100292.13;;;16.49;100.00
28310;BME280;15571;50.974;13.936;2022-10-13T14:20:08;100293.94;;;16.47;100.00
28310;BME280;15571;50.974;13.936;2022-10-13T14:23:12;100293.97;;;16.46;100.00
28310;BME280;15571;50.974;13.936;2022-10-13T14:26:14;100280.88;;;16.43;100.00
28310;BME280;15571;50.974;13.936;2022-10-13T14:29:17;100289.63;;;16.45;100.00
28310;BME280;15571;50.974;13.936;2022-10-13T14:32:21;100296.72;;;16.43;100.00
28310;BME280;15571;50.974;13.936;2022-10-13T14:35:24;100288.88;;;16.40;100.00
28310;BME280;15571;50.974;13.936;2022-10-13T14:38:27;100288.94;;;16.38;100.00
28310;BME280;15571;50.974;13.936;2022-10-13T14:41:30;100281.03;;;16.37;100.00
28310;BME280;15571;50.974;13.936;2022-10-13T14:44:32;100275.75;;;16.37;100.00
28310;BME280;15571;50.974;13.936;2022-10-13T14:47:36;100271.41;;;16.36;100.00
28310;BME280;15571;50.974;13.936;2022-10-13T14:50:38;100267.94;;;16.33;100.00
28310;BME280;15571;50.974;13.936;2022-10-13T14:53:42;100273.22;;;16.32;100.00
28310;BME280;15571;50.974;13.936;2022-10-13T14:56:46;100272.47;;;16.28;100.00
28310;BME280;15571;50.974;13.936;2022-10-13T14:59:48;100268.97;;;16.26;100.00
28310;BME280;15571;50.974;13.936;2022-10-13T15:02:55;100263.88;;;16.20;100.00
28310;BME280;15571;50.974;13.936;2022-10-13T15:05:59;100267.53;;;16.16;100.00
28310;BME280;15571;50.974;13.936;2022-10-13T15:09:02;100271.09;;;16.15;100.00
28310;BME280;15571;50.974;13.936;2022-10-13T15:12:07;100264.22;;;16.08;100.00
28310;BME280;15571;50.974;13.936;2022-10-13T15:15:11;100267.00;;;16.03;100.00
28310;BME280;15571;50.974;13.936;2022-10-13T15:18:18;100266.13;;;16.02;100.00
28310;BME280;15571;50.974;13.936;2022-10-13T15:21:21;100270.59;;;16.00;100.00
28310;BME280;15571;50.974;13.936;2022-10-13T15:24:24;100268.03;;;15.97;100.00
28310;BME280;15571;50.974;13.936;2022-10-13T15:27:29;100263.81;;;15.92;100.00
28310;BME280;15571;50.974;13.936;2022-10-13T15:30:35;100262.09;;;15.89;100.00
28310;BME280;15571;50.974;13.936;2022-10-13T15:33:45;100263.94;;;15.85;100.00
28310;BME280;15571;50.974;13.936;2022-10-13T15:36:54;100264.88;;;15.83;100.00
28310;BME280;15571;50.974;13.936;2022-10-13T15:39:57;100259.72;;;15.78;100.00
28310;BME280;15571;50.974;13.936;2022-10-13T15:43:01;100251.91;;;15.74;100.00
28310;BME280;15571;50.974;13.936;2022-10-13T15:46:06;100254.56;;;15.74;100.00
28310;BME280;15571;50.974;13.936;2022-10-13T15:49:10;100254.75;;;15.66;100.00
28310;BME280;15571;50.974;13.936;2022-10-13T15:52:13;100253.06;;;15.63;100.00
28310;BME280;15571;50.974;13.936;2022-10-13T15:55:16;100258.41;;;15.60;100.00
28310;BME280;15571;50.974;13.936;2022-10-13T15:58:19;100258.50;;;15.57;100.00